Time;durP1;ratioP1;P1;durP2;ratioP2;P2;SDS_P1;SDS_P2;PMS_P1;PMS_P2;Temp;Humidity;BMP_temperature;BMP_pressure;BME280_temperature;BME280_humidity;BME280_pressure;Samples;Min_cycle;Max_cycle;Signal;HPM_P1;HPM_P2
2023/05/01 00:00:54;;;;;;;3.15;1.20;;;7.30;99.90;;;;;;5015820;28;20041;-84
2023/05/01 00:03:20;;;;;;;1.95;1.00;;;6.90;99.90;;;;;;4998193;28;20136;-85
2023/05/01 00:05:47;;;;;;;2.63;1.60;;;6.80;99.90;;;;;;5033038;28;20064;-85
2023/05/01 00:08:12;;;;;;;2.65;1.25;;;6.70;99.90;;;;;;5015515;28;20041;-84
2023/05/01 00:10:39;;;;;;;3.05;1.15;;;6.70;99.90;;;;;;5032953;28;20094;-85
2023/05/01 00:13:05;;;;;;;2.58;1.27;;;6.70;99.90;;;;;;5014912;28;20073;-85
2023/05/01 00:15:32;;;;;;;2.40;1.20;;;6.70;99.90;;;;;;5033099;28;20098;-84
2023/05/01 00:17:57;;;;;;;1.77;1.17;;;6.60;99.90;;;;;;5014449;28;20092;-85
2023/05/01 00:20:29;;;;;;;2.67;1.10;;;6.60;99.90;;;;;;5011519;28;20445;-85
2023/05/01 00:22:56;;;;;;;2.10;1.17;;;6.60;99.90;;;;;;5031074;28;20132;-84
2023/05/01 00:25:22;;;;;;;2.35;1.20;;;7.50;99.90;;;;;;5032182;28;20133;-84
2023/05/01 00:27:48;;;;;;;2.78;1.10;;;7.70;99.90;;;;;;5014979;28;20121;-85
2023/05/01 00:30:14;;;;;;;2.13;1.30;;;7.70;99.90;;;;;;5014974;28;20401;-84
2023/05/01 00:32:40;;;;;;;2.35;1.20;;;6.50;99.90;;;;;;5032360;28;20041;-84
2023/05/01 00:35:09;;;;;;;2.85;1.27;;;6.50;99.90;;;;;;5014131;28;20425;-85
2023/05/01 00:37:34;;;;;;;2.85;1.23;;;6.50;99.90;;;;;;5033085;28;20041;-85
2023/05/01 00:40:00;;;;;;;2.05;1.20;;;7.50;99.90;;;;;;5011728;28;20054;-85
2023/05/01 00:42:26;;;;;;;2.05;1.23;;;5.90;99.90;;;;;;5014822;28;20045;-85
2023/05/01 00:44:51;;;;;;;3.40;1.20;;;7.00;99.90;;;;;;4998486;28;20073;-85
2023/05/01 00:47:17;;;;;;;2.40;1.20;;;6.50;99.90;;;;;;5032547;28;20112;-85
2023/05/01 00:49:45;;;;;;;2.83;1.42;;;7.00;99.90;;;;;;5014326;28;20048;-85
2023/05/01 00:52:10;;;;;;;2.00;1.40;;;6.60;99.90;;;;;;5014681;28;20509;-85
2023/05/01 00:54:36;;;;;;;3.70;1.40;;;7.00;99.90;;;;;;5031875;28;20054;-85
2023/05/01 00:57:02;;;;;;;3.17;1.60;;;6.30;99.90;;;;;;5032487;28;20041;-85
2023/05/01 00:59:29;;;;;;;2.53;1.48;;;7.00;99.90;;;;;;5032413;28;20049;-85
2023/05/01 01:01:55;;;;;;;3.28;1.50;;;6.90;99.90;;;;;;4997645;28;20515;-85
2023/05/01 01:04:20;;;;;;;2.50;1.40;;;6.60;99.90;;;;;;5031927;28;20141;-85
2023/05/01 01:07:23;;;;;;;1.95;0.95;;;7.20;99.90;;;;;;5032340;28;20478;-85
2023/05/01 01:10:10;;;;;;;2.08;1.10;;;6.30;99.90;;;;;;4917185;29;20094;-85
2023/05/01 01:13:09;;;;;;;4.53;1.35;;;6.20;99.90;;;;;;4917037;29;20146;-84
2023/05/01 01:15:44;;;;;;;3.97;1.40;;;6.30;99.90;;;;;;4909313;29;20062;-85
2023/05/01 01:18:27;;;;;;;2.40;1.17;;;6.60;99.90;;;;;;4907739;29;20433;-85
2023/05/01 01:21:35;;;;;;;2.50;1.20;;;6.20;99.90;;;;;;4897813;29;20505;-85
2023/05/01 01:24:09;;;;;;;3.08;1.30;;;6.20;99.90;;;;;;4913077;29;20530;-85
2023/05/01 01:27:03;;;;;;;2.53;1.20;;;6.20;99.90;;;;;;4913699;29;20131;-84
2023/05/01 01:29:38;;;;;;;4.15;1.70;;;6.20;99.90;;;;;;4893014;29;20069;-85
2023/05/01 01:32:20;;;;;;;1.90;1.25;;;6.80;99.90;;;;;;4893483;29;20501;-85
2023/05/01 01:34:53;;;;;;;3.65;1.23;;;6.20;99.90;;;;;;4897231;29;20048;-85
2023/05/01 01:37:23;;;;;;;3.28;1.20;;;5.50;99.90;;;;;;4897548;29;20506;-85
2023/05/01 01:39:53;;;;;;;6.30;1.40;;;6.10;99.90;;;;;;4897840;29;20060;-85
2023/05/01 01:42:25;;;;;;;2.90;1.38;;;6.10;99.90;;;;;;4913079;29;20060;-84
2023/05/01 01:44:57;;;;;;;3.42;1.55;;;6.70;99.90;;;;;;4896159;29;20088;-85
2023/05/01 01:47:30;;;;;;;2.45;1.35;;;6.10;99.90;;;;;;4946608;28;20065;-85
2023/05/01 01:50:00;;;;;;;4.60;1.17;;;6.90;99.90;;;;;;4947471;28;20035;-86
2023/05/01 01:52:28;;;;;;;2.78;1.45;;;7.20;99.90;;;;;;4986578;28;20053;-84
2023/05/01 01:54:59;;;;;;;3.25;1.55;;;6.00;99.90;;;;;;5009035;28;20045;-85
2023/05/01 01:57:27;;;;;;;3.10;1.27;;;6.80;99.90;;;;;;5031672;28;20099;-84
2023/05/01 01:59:54;;;;;;;3.35;1.40;;;6.00;99.90;;;;;;5013754;28;20044;-85
2023/05/01 02:02:21;;;;;;;1.65;1.20;;;6.00;99.90;;;;;;5031095;28;20054;-84
2023/05/01 02:04:52;;;;;;;1.63;1.10;;;6.00;99.90;;;;;;5031354;28;20050;-84
2023/05/01 02:07:19;;;;;;;2.53;1.20;;;6.70;99.90;;;;;;5014018;28;20052;-86
2023/05/01 02:09:47;;;;;;;3.42;1.95;;;6.70;99.90;;;;;;5009312;28;20057;-85
2023/05/01 02:12:15;;;;;;;2.22;1.33;;;6.60;99.90;;;;;;5013849;28;20050;-85
2023/05/01 02:14:41;;;;;;;3.90;1.35;;;6.30;99.90;;;;;;5012995;28;20386;-85
2023/05/01 02:17:12;;;;;;;3.03;1.27;;;5.80;99.90;;;;;;5031675;28;20034;-85
2023/05/01 02:19:41;;;;;;;2.78;1.45;;;5.80;99.90;;;;;;5030043;28;20056;-85
2023/05/01 02:22:08;;;;;;;3.45;1.40;;;6.70;99.90;;;;;;5007466;28;20053;-85
2023/05/01 02:24:37;;;;;;;2.53;1.20;;;6.50;99.90;;;;;;5008026;28;20049;-85
2023/05/01 02:27:18;;;;;;;5.55;1.50;;;5.80;99.90;;;;;;5009987;28;20485;-85
2023/05/01 02:29:44;;;;;;;2.17;1.42;;;5.70;99.90;;;;;;4997944;28;20388;-85
2023/05/01 02:32:11;;;;;;;4.00;1.83;;;5.90;99.90;;;;;;5013802;28;20128;-85
2023/05/01 02:34:36;;;;;;;2.05;1.30;;;5.70;99.90;;;;;;5030967;28;20038;-85
2023/05/01 02:37:06;;;;;;;2.08;1.48;;;7.10;99.90;;;;;;5013886;28;20041;-85
2023/05/01 02:39:33;;;;;;;3.13;1.45;;;5.60;99.90;;;;;;5013746;28;20053;-85
2023/05/01 02:42:02;;;;;;;1.92;1.25;;;5.70;99.90;;;;;;4997506;28;20507;-85
2023/05/01 02:44:41;;;;;;;3.50;1.38;;;5.70;99.90;;;;;;5013098;28;20102;-85
2023/05/01 02:47:09;;;;;;;2.65;1.40;;;6.80;99.90;;;;;;5023693;28;20049;-85
2023/05/01 02:49:36;;;;;;;4.28;2.05;;;5.00;99.90;;;;;;5016606;28;20485;-85
2023/05/01 02:52:03;;;;;;;3.90;1.73;;;6.30;99.90;;;;;;5016328;28;20049;-85
2023/05/01 02:54:30;;;;;;;5.05;1.80;;;5.60;99.90;;;;;;5017034;28;20057;-85
2023/05/01 02:56:58;;;;;;;2.25;1.23;;;5.50;99.90;;;;;;5016678;28;20549;-85
2023/05/01 02:59:24;;;;;;;4.40;2.10;;;6.40;99.90;;;;;;5034433;28;20449;-85
2023/05/01 03:01:50;;;;;;;2.75;1.50;;;6.50;99.90;;;;;;5000441;28;20095;-86
2023/05/01 03:04:16;;;;;;;1.85;1.10;;;6.40;99.90;;;;;;5016445;28;20058;-86
2023/05/01 03:06:43;;;;;;;4.00;1.85;;;6.90;99.90;;;;;;5016841;28;20363;-85
2023/05/01 03:09:09;;;;;;;2.70;1.67;;;5.50;99.90;;;;;;5013700;28;20149;-85
2023/05/01 03:11:34;;;;;;;4.50;1.80;;;6.80;99.90;;;;;;5016231;28;20048;-85
2023/05/01 03:14:00;;;;;;;2.83;1.42;;;5.40;99.90;;;;;;5016827;28;20077;-85
2023/05/01 03:16:26;;;;;;;3.20;1.60;;;6.80;99.90;;;;;;5033445;28;20111;-85
2023/05/01 03:18:52;;;;;;;2.88;1.67;;;6.50;99.90;;;;;;5014485;28;20049;-86
2023/05/01 03:21:17;;;;;;;3.70;1.77;;;6.50;99.90;;;;;;4988486;28;20086;-86
2023/05/01 03:23:43;;;;;;;2.55;1.58;;;6.70;99.90;;;;;;5006763;28;20078;-85
2023/05/01 03:26:09;;;;;;;2.05;0.95;;;6.30;99.90;;;;;;5015025;28;20057;-86
2023/05/01 03:28:35;;;;;;;4.10;1.70;;;6.30;99.90;;;;;;4999565;28;20120;-85
2023/05/01 03:31:00;;;;;;;3.92;2.03;;;6.50;99.90;;;;;;5015416;28;20164;-85
2023/05/01 03:33:26;;;;;;;2.65;1.70;;;6.50;99.90;;;;;;5014730;28;20042;-86
2023/05/01 03:36:00;;;;;;;8.07;3.30;;;5.50;99.90;;;;;;5016122;28;20037;-86
2023/05/01 03:38:27;;;;;;;3.95;1.92;;;6.50;99.90;;;;;;5033236;28;20493;-85
2023/05/01 03:40:52;;;;;;;2.88;1.63;;;5.20;99.90;;;;;;5015552;28;20481;-85
2023/05/01 03:43:18;;;;;;;2.03;1.35;;;5.70;99.90;;;;;;5015770;28;20050;-85
2023/05/01 03:45:44;;;;;;;3.85;1.67;;;5.20;99.90;;;;;;5015876;28;20048;-85
2023/05/01 03:48:10;;;;;;;4.75;1.58;;;5.30;99.90;;;;;;5033185;28;20049;-85
2023/05/01 03:50:36;;;;;;;8.68;3.42;;;5.80;99.90;;;;;;5015741;28;20056;-85
2023/05/01 03:53:02;;;;;;;4.57;1.95;;;5.80;99.90;;;;;;5033670;28;20033;-87
2023/05/01 03:55:27;;;;;;;3.42;1.67;;;5.70;99.90;;;;;;5015855;28;20057;-86
2023/05/01 03:57:53;;;;;;;2.45;1.33;;;5.50;99.90;;;;;;5033752;28;20048;-87
2023/05/01 04:00:21;;;;;;;2.83;1.45;;;6.40;99.90;;;;;;5014669;28;20084;-85
2023/05/01 04:02:46;;;;;;;4.35;1.80;;;5.10;99.90;;;;;;5033186;28;20053;-86
2023/05/01 04:05:13;;;;;;;2.97;1.40;;;5.10;99.90;;;;;;5015479;28;20117;-85
2023/05/01 04:07:39;;;;;;;2.95;1.50;;;5.20;99.90;;;;;;4999167;28;20171;-86
2023/05/01 04:10:08;;;;;;;1.90;1.10;;;4.50;99.90;;;;;;5015170;28;20132;-85
2023/05/01 04:12:34;;;;;;;2.53;1.20;;;5.00;99.90;;;;;;5014942;28;20057;-86
2023/05/01 04:15:00;;;;;;;3.50;1.65;;;6.30;99.90;;;;;;5033334;28;20191;-85
2023/05/01 04:17:26;;;;;;;2.72;1.15;;;5.60;99.90;;;;;;5015176;28;20523;-85
2023/05/01 04:19:54;;;;;;;3.53;1.50;;;5.10;99.90;;;;;;5014880;28;20049;-85
2023/05/01 04:22:21;;;;;;;2.55;1.10;;;5.90;99.90;;;;;;5014197;28;20048;-86
2023/05/01 04:24:47;;;;;;;4.25;1.80;;;6.20;99.90;;;;;;5014618;28;20073;-85
2023/05/01 04:27:12;;;;;;;3.17;1.08;;;4.90;99.90;;;;;;5033144;28;20076;-86
2023/05/01 04:29:38;;;;;;;3.70;1.50;;;5.70;99.90;;;;;;5014470;28;20125;-86
2023/05/01 04:32:04;;;;;;;4.10;1.42;;;5.20;99.90;;;;;;5015197;28;20045;-86
2023/05/01 04:34:30;;;;;;;2.95;1.50;;;4.90;99.90;;;;;;5015210;28;20429;-86
2023/05/01 04:36:58;;;;;;;3.95;1.77;;;4.80;99.90;;;;;;5014824;28;20080;-86
2023/05/01 04:39:24;;;;;;;2.65;1.30;;;4.80;99.90;;;;;;5015360;28;20374;-86
2023/05/01 04:41:50;;;;;;;3.90;1.40;;;5.90;99.90;;;;;;5032228;28;20059;-85
2023/05/01 04:44:16;;;;;;;2.05;1.30;;;5.00;99.90;;;;;;5015490;28;20045;-85
2023/05/01 04:46:42;;;;;;;2.17;1.35;;;5.00;99.90;;;;;;5032565;28;20064;-85
2023/05/01 04:49:08;;;;;;;2.25;1.30;;;5.00;99.90;;;;;;5011869;28;20049;-85
2023/05/01 04:51:34;;;;;;;2.88;1.58;;;5.00;99.90;;;;;;5009767;28;20334;-85
2023/05/01 04:54:00;;;;;;;3.58;1.40;;;5.10;99.90;;;;;;5014329;28;20041;-86
2023/05/01 04:56:26;;;;;;;396.90;260.33;;;5.10;99.90;;;;;;5015443;28;20049;-87
2023/05/01 04:58:51;;;;;;;4.15;1.65;;;6.50;99.90;;;;;;5015081;28;20421;-85
2023/05/01 05:01:17;;;;;;;205.00;155.18;;;5.20;99.90;;;;;;5014598;28;20371;-86
2023/05/01 05:03:43;;;;;;;3.65;1.65;;;5.20;99.90;;;;;;5032237;28;20049;-86
2023/05/01 05:06:10;;;;;;;2.55;1.17;;;6.50;99.90;;;;;;5033005;28;20052;-86
2023/05/01 05:08:35;;;;;;;3.22;1.30;;;5.40;99.90;;;;;;5033206;28;20136;-85
2023/05/01 05:11:01;;;;;;;2.47;1.10;;;5.20;99.90;;;;;;5014471;28;20806;-86
2023/05/01 05:13:27;;;;;;;2.83;1.27;;;6.30;99.90;;;;;;4999396;28;20118;-85
2023/05/01 05:15:53;;;;;;;2.00;0.93;;;6.70;99.90;;;;;;5015355;28;20076;-85
2023/05/01 05:18:19;;;;;;;2.50;1.55;;;6.00;99.90;;;;;;5015623;28;20076;-85
2023/05/01 05:20:45;;;;;;;1.65;0.90;;;5.60;99.90;;;;;;5016568;28;20048;-85
2023/05/01 05:23:11;;;;;;;8.65;1.80;;;5.70;99.90;;;;;;5015631;28;20493;-85
2023/05/01 05:25:37;;;;;;;3.15;1.10;;;6.40;99.90;;;;;;5016004;28;20046;-86
2023/05/01 05:28:03;;;;;;;738.90;474.40;;;6.00;99.90;;;;;;5033789;28;20466;-85
2023/05/01 05:30:29;;;;;;;1.92;1.00;;;6.00;99.90;;;;;;5033278;28;20037;-85
2023/05/01 05:32:54;;;;;;;794.53;480.97;;;5.60;99.90;;;;;;5015768;28;20048;-86
2023/05/01 05:35:20;;;;;;;1.88;1.23;;;6.90;99.90;;;;;;5032108;28;20115;-85
2023/05/01 05:37:46;;;;;;;3.35;1.00;;;7.30;99.90;;;;;;5032223;28;20397;-85
2023/05/01 05:40:12;;;;;;;2.45;1.20;;;7.60;99.90;;;;;;5013840;28;20041;-85
2023/05/01 05:42:38;;;;;;;1.63;0.90;;;6.40;99.90;;;;;;5032070;28;20498;-86
2023/05/01 05:45:05;;;;;;;2.88;1.08;;;7.90;99.90;;;;;;5014125;28;20054;-85
2023/05/01 05:47:30;;;;;;;1.77;1.13;;;6.60;99.90;;;;;;5014392;28;20421;-85
2023/05/01 05:49:56;;;;;;;5.53;1.58;;;6.80;99.90;;;;;;5031571;28;20045;-85
2023/05/01 05:52:22;;;;;;;1.75;1.02;;;7.60;99.90;;;;;;5013694;28;20037;-86
2023/05/01 05:54:48;;;;;;;2.05;1.10;;;7.90;99.90;;;;;;5014004;28;20037;-85
2023/05/01 05:57:14;;;;;;;3.05;1.17;;;8.10;99.90;;;;;;5013746;28;20045;-85
2023/05/01 05:59:39;;;;;;;2.05;1.00;;;7.80;99.90;;;;;;5031512;28;20088;-85
2023/05/01 06:02:06;;;;;;;1.95;0.95;;;7.20;99.90;;;;;;5013415;28;20088;-85
2023/05/01 06:04:31;;;;;;;2.83;1.00;;;8.70;99.90;;;;;;5031730;28;20445;-86
2023/05/01 06:06:58;;;;;;;1.85;1.17;;;7.50;99.90;;;;;;5014075;28;20049;-85
2023/05/01 06:09:25;;;;;;;1.92;1.10;;;7.90;99.90;;;;;;5031663;28;20033;-87
2023/05/01 06:12:09;;;;;;;2.38;1.42;;;7.40;99.90;;;;;;5031937;28;20056;-87
2023/05/01 06:14:35;;;;;;;1.52;0.95;;;7.50;99.90;;;;;;5014112;28;20045;-88
2023/05/01 06:17:38;;;;;;;3.08;1.25;;;8.70;99.90;;;;;;5014306;28;20060;-88
2023/05/01 06:20:59;;;;;;;2.63;1.40;;;7.70;99.90;;;;;;4913443;29;20055;-89
2023/05/01 06:23:59;;;;;;;2.90;1.30;;;7.90;99.90;;;;;;4913384;29;20098;-88
2023/05/01 06:26:28;;;;;;;2.85;1.33;;;8.10;99.90;;;;;;4900251;29;20153;-87
2023/05/01 06:28:57;;;;;;;2.25;1.42;;;8.10;99.90;;;;;;4901930;29;20091;-86
2023/05/01 06:31:32;;;;;;;3.92;1.35;;;8.30;99.90;;;;;;4900821;29;20076;-87
2023/05/01 06:34:12;;;;;;;3.50;1.40;;;8.40;99.90;;;;;;4900766;29;20425;-88
2023/05/01 06:41:17;;;;;;;;;;;;;;;;;;;;;
2023/05/01 06:45:18;;;;;;;2.78;1.30;;;8.80;99.90;;;;;;4842149;29;20197;-88
2023/05/01 06:48:16;;;;;;;4.68;1.27;;;9.00;99.90;;;;;;4849925;29;20136;-89
2023/05/01 06:50:52;;;;;;;2.92;1.38;;;9.30;99.90;;;;;;4845351;29;20100;-90
2023/05/01 06:53:18;;;;;;;4.15;1.33;;;9.30;99.90;;;;;;4834420;29;20559;-84
2023/05/01 07:03:32;;;;;;;2.00;1.25;;;10.10;99.90;;;;;;5519703;23;20047;-86
2023/05/01 07:15:00;;;;;;;1.95;0.95;;;10.70;99.90;;;;;;5062202;23;20070;-87
2023/05/01 07:17:32;;;;;;;2.17;1.08;;;11.30;99.90;;;;;;4986012;28;20053;-86
2023/05/01 07:19:58;;;;;;;3.17;1.40;;;11.40;99.90;;;;;;4997716;28;20043;-84
2023/05/01 07:22:23;;;;;;;3.95;1.45;;;11.20;99.90;;;;;;4988649;28;20498;-85
2023/05/01 07:25:15;;;;;;;7.38;1.80;;;11.60;99.90;;;;;;4992929;28;20100;-87
2023/05/01 07:27:51;;;;;;;4.82;1.80;;;11.30;99.90;;;;;;4935822;28;20427;-87
2023/05/01 07:30:16;;;;;;;3.92;1.30;;;11.50;99.90;;;;;;4957930;28;20054;-87
2023/05/01 07:32:48;;;;;;;2.97;1.90;;;11.60;99.90;;;;;;4958146;28;20059;-87
2023/05/01 07:35:25;;;;;;;2.45;1.50;;;11.90;99.90;;;;;;4957099;28;20070;-87
2023/05/01 07:37:53;;;;;;;2.97;1.70;;;11.80;99.90;;;;;;4973751;28;20074;-88
2023/05/01 07:40:22;;;;;;;3.45;1.60;;;11.90;99.90;;;;;;4957484;28;20043;-87
2023/05/01 07:42:51;;;;;;;4.07;1.52;;;12.10;99.90;;;;;;4956932;28;20055;-87
2023/05/01 07:45:20;;;;;;;3.15;1.85;;;12.20;99.90;;;;;;4973534;28;20051;-89
2023/05/01 07:47:46;;;;;;;3.70;1.65;;;12.40;99.90;;;;;;4974019;28;20102;-87
2023/05/01 07:50:21;;;;;;;3.67;1.60;;;12.60;99.90;;;;;;4957648;28;20038;-87
2023/05/01 07:52:55;;;;;;;3.45;2.03;;;12.70;99.90;;;;;;4972343;28;20058;-88
2023/05/01 07:55:36;;;;;;;;;;;;;;;;;;;;;
2023/05/01 07:58:16;;;;;;;2.42;1.30;;;13.10;99.90;;;;;;4971423;28;20133;-87
2023/05/01 08:00:44;;;;;;;4.68;1.40;;;13.30;99.90;;;;;;4957451;28;20070;-87
2023/05/01 08:03:18;;;;;;;573.63;473.87;;;13.50;99.90;;;;;;4941232;28;20051;-86
2023/05/01 08:06:05;;;;;;;4.50;1.65;;;13.60;99.90;;;;;;4994580;28;20077;-87
2023/05/01 08:08:38;;;;;;;3.53;1.65;;;14.00;99.90;;;;;;4996809;28;20046;-88
2023/05/01 08:11:12;;;;;;;3.78;1.70;;;14.00;99.90;;;;;;4997184;28;20045;-87
2023/05/01 08:13:40;;;;;;;3.83;1.60;;;13.90;99.90;;;;;;5014206;28;20077;-88
2023/05/01 08:16:06;;;;;;;2.83;1.30;;;14.40;99.90;;;;;;4980027;28;20088;-87
2023/05/01 08:18:40;;;;;;;3.95;1.50;;;14.50;99.90;;;;;;4980915;28;20081;-88
2023/05/01 08:21:38;;;;;;;2.25;1.23;;;14.50;99.90;;;;;;4996428;28;20051;-88
2023/05/01 08:24:11;;;;;;;3.17;1.27;;;15.50;99.90;;;;;;4996308;28;20486;-87
2023/05/01 08:27:19;;;;;;;2.83;1.08;;;15.10;99.90;;;;;;4996623;28;20048;-87
2023/05/01 08:30:35;;;;;;;;;;;;;;;;;;;;;
2023/05/01 08:33:43;;;;;;;5.35;1.77;;;15.50;99.90;;;;;;4917489;29;20146;-89
2023/05/01 08:39:56;;;;;;;3.15;1.17;;;15.60;99.90;;;;;;4916436;29;20047;-87
2023/05/01 08:42:54;;;;;;;4.03;1.10;;;15.40;99.90;;;;;;4862154;29;20436;-88
2023/05/01 08:45:37;;;;;;;2.83;1.10;;;16.00;99.90;;;;;;4874790;29;20609;-88
2023/05/01 08:49:10;;;;;;;;;;;;;;;;;;;;;
2023/05/01 08:56:14;;;;;;;;;;;;;;;;;;;;;
2023/05/01 08:59:41;;;;;;;;;;;;;;;;;;;;;
2023/05/01 09:16:43;;;;;;;3.90;1.45;;;17.40;99.90;;;;;;5348025;22;20963685;-86
2023/05/01 09:31:07;;;;;;;;;;;;;;;;;;;;;
2023/05/01 09:57:24;;;;;;;3.28;0.88;;;19.10;96.00;;;;;;5984263;24;20215;-88
2023/05/01 10:04:18;;;;;;;3.33;0.88;;;19.30;93.20;;;;;;6192805;23;20029;-90
2023/05/01 10:15:05;;;;;;;1.40;0.50;;;19.30;92.20;;;;;;5988353;24;20028;-90
2023/05/01 10:18:12;;;;;;;2.47;0.68;;;19.50;93.10;;;;;;5909286;24;20046;-87
2023/05/01 10:21:15;;;;;;;1.92;0.60;;;19.70;93.30;;;;;;5931906;24;20073;-88
2023/05/01 10:27:45;;;;;;;1.33;0.40;;;19.80;92.40;;;;;;5775446;24;20510;-88
2023/05/01 10:34:14;;;;;;;0.50;0.35;;;19.90;91.60;;;;;;5100107;27;1825966;-86
2023/05/01 10:39:38;;;;;;;1.13;0.50;;;20.50;93.00;;;;;;4270578;26;20058;-87
2023/05/01 10:58:13;;;;;;;;;;;;;;;;;;;;;
2023/05/01 11:04:50;;;;;;;1.55;0.68;;;21.30;92.00;;;;;;4941991;29;20115;-87
2023/05/01 11:07:17;;;;;;;1.25;0.40;;;21.30;89.50;;;;;;4933526;29;20052;-85
2023/05/01 11:14:40;;;;;;;3.60;0.68;;;21.20;91.70;;;;;;4816571;29;20061;-86
2023/05/01 11:17:45;;;;;;;2.15;0.57;;;21.20;90.80;;;;;;4811098;29;20161;-88
2023/05/01 11:21:01;;;;;;;1.65;0.57;;;21.30;90.60;;;;;;4812452;29;20607;-87
2023/05/01 11:23:53;;;;;;;2.30;0.70;;;21.30;91.30;;;;;;4814676;29;20242;-88
2023/05/01 11:26:40;;;;;;;;;;;;;;;;;;;;;
2023/05/01 11:29:14;;;;;;;2.72;0.77;;;21.30;91.00;;;;;;4779701;30;20055;-87
2023/05/01 11:32:01;;;;;;;2.88;0.88;;;21.60;90.10;;;;;;4767361;30;20475;-89
2023/05/01 11:35:01;;;;;;;1.20;0.50;;;21.90;90.00;;;;;;4776424;30;20059;-88
2023/05/01 11:37:50;;;;;;;3.70;0.60;;;21.50;89.20;;;;;;4763193;30;20047;-89
2023/05/01 11:41:10;;;;;;;1.92;0.35;;;21.50;90.50;;;;;;4771533;29;20146;-89
2023/05/01 11:44:36;;;;;;;;;;;;;;;;;;;;;
2023/05/01 11:47:18;;;;;;;0.95;0.20;;;21.70;87.90;;;;;;4755611;30;20055;-88
2023/05/01 11:50:14;;;;;;;2.38;0.50;;;21.80;88.90;;;;;;4704606;30;20044;-87
2023/05/01 11:53:00;;;;;;;1.33;0.40;;;21.80;84.00;;;;;;4748557;30;20143;-87
2023/05/01 11:55:33;;;;;;;1.23;0.20;;;21.70;84.80;;;;;;4743948;30;20068;-90
2023/05/01 11:58:00;;;;;;;1.38;0.40;;;21.60;89.80;;;;;;4739877;30;20059;-92
2023/05/01 12:00:40;;;;;;;;;;;;;;;;;;;;;
2023/05/01 12:03:44;;;;;;;2.28;0.30;;;22.00;85.00;;;;;;4798690;29;20058;-90
2023/05/01 12:06:14;;;;;;;1.67;0.55;;;21.80;87.00;;;;;;4805510;29;20191;-89
2023/05/01 12:08:55;;;;;;;0.77;0.20;;;21.80;83.00;;;;;;4840299;29;20050;-88
2023/05/01 12:11:46;;;;;;;1.52;0.40;;;21.90;87.60;;;;;;4809530;29;20405;-86
2023/05/01 12:14:17;;;;;;;2.60;0.40;;;22.00;84.70;;;;;;4850360;29;20211;-88
2023/05/01 12:17:18;;;;;;;2.53;0.30;;;21.90;85.10;;;;;;4819725;29;20454;-91
2023/05/01 12:20:05;;;;;;;2.20;0.47;;;21.90;89.40;;;;;;4859454;29;20076;-88
2023/05/01 12:27:12;;;;;;;;;;;;;;;;;;;;;
2023/05/01 12:29:56;;;;;;;1.95;0.40;;;22.20;85.10;;;;;;4821694;29;20066;-89
2023/05/01 12:32:38;;;;;;;0.50;0.30;;;22.10;84.90;;;;;;4837339;29;20149;-87
2023/05/01 12:35:40;;;;;;;3.33;0.47;;;22.10;87.00;;;;;;4834703;29;20552;-88
2023/05/01 12:38:28;;;;;;;2.35;0.30;;;22.00;85.50;;;;;;4829168;29;20046;-87
2023/05/01 12:41:00;;;;;;;1.25;0.20;;;22.10;85.30;;;;;;4841707;29;20496;-88
2023/05/01 12:43:31;;;;;;;1.35;0.30;;;21.90;83.50;;;;;;4825813;29;20057;-88
2023/05/01 12:45:57;;;;;;;2.13;0.50;;;22.10;87.20;;;;;;4826658;29;20064;-86
2023/05/01 12:48:26;;;;;;;1.08;0.40;;;22.20;82.60;;;;;;4826417;29;20053;-87
2023/05/01 12:50:55;;;;;;;1.52;0.50;;;22.10;86.10;;;;;;4850424;29;20122;-87
2023/05/01 12:53:43;;;;;;;1.23;0.50;;;22.10;84.40;;;;;;4859453;29;20095;-87
2023/05/01 12:56:22;;;;;;;3.97;0.63;;;22.10;85.40;;;;;;4824885;29;20077;-87
2023/05/01 12:58:49;;;;;;;3.60;0.50;;;22.30;86.30;;;;;;4841368;29;20077;-88
2023/05/01 13:01:34;;;;;;;3.35;1.08;;;21.40;86.60;;;;;;4859705;29;20090;-88
2023/05/01 13:08:44;;;;;;;5.22;1.15;;;22.30;86.70;;;;;;4859745;29;20542;-87
2023/05/01 13:14:47;;;;;;;3.78;0.93;;;21.80;88.00;;;;;;4876902;29;20117;-89
2023/05/01 13:17:31;;;;;;;1.23;0.50;;;21.90;87.90;;;;;;4850753;29;20121;-90
2023/05/01 13:20:38;;;;;;;;;;;;;;;;;;;;;
2023/05/01 13:27:34;;;;;;;3.88;0.63;;;21.30;89.10;;;;;;4916160;23;20071;-92
2023/05/01 13:30:30;;;;;;;2.87;0.60;;;21.00;89.20;;;;;;4874752;29;20063;-94
2023/05/01 13:41:01;;;;;;;2.28;0.50;;;20.40;88.40;;;;;;4823295;29;20510;-90
2023/05/01 13:43:58;;;;;;;2.92;0.57;;;20.90;89.90;;;;;;4807833;29;20473;-90
2023/05/01 13:46:35;;;;;;;3.92;0.60;;;20.60;90.20;;;;;;4809983;29;20096;-89
2023/05/01 13:49:10;;;;;;;1.45;0.70;;;20.70;88.90;;;;;;4841326;29;20046;-91
2023/05/01 13:51:42;;;;;;;3.10;0.60;;;20.40;89.10;;;;;;4840518;29;20110;-90
2023/05/01 13:54:09;;;;;;;1.33;0.57;;;20.20;90.20;;;;;;4825786;29;20549;-85
2023/05/01 13:56:40;;;;;;;3.35;0.70;;;20.10;90.10;;;;;;4831041;29;20503;-86
2023/05/01 13:59:07;;;;;;;2.05;0.73;;;20.10;89.60;;;;;;4835452;29;20163;-87
2023/05/01 14:01:44;;;;;;;2.75;0.60;;;19.90;89.70;;;;;;4847509;29;20041;-88
2023/05/01 14:04:26;;;;;;;260.15;126.85;;;19.70;90.90;;;;;;4823441;29;20050;-89
2023/05/01 14:10:35;;;;;;;2.20;0.57;;;19.50;90.80;;;;;;4840819;29;20124;-88
2023/05/01 14:13:11;;;;;;;0.90;0.40;;;19.30;91.50;;;;;;4855917;29;20049;-87
2023/05/01 14:15:42;;;;;;;0.90;0.35;;;19.70;91.40;;;;;;4860504;29;20050;-88
2023/05/01 14:18:18;;;;;;;1.63;0.40;;;19.10;91.80;;;;;;4877437;29;20528;-88
2023/05/01 14:21:02;;;;;;;1.60;0.45;;;19.00;92.40;;;;;;4870283;29;20041;-89
2023/05/01 14:23:40;;;;;;;2.15;0.50;;;18.90;92.30;;;;;;4879319;29;20418;-88
2023/05/01 14:26:07;;;;;;;2.72;0.50;;;18.80;92.80;;;;;;4877598;29;20048;-87
2023/05/01 14:28:38;;;;;;;1.98;0.40;;;18.80;92.10;;;;;;4872155;29;20062;-88
2023/05/01 14:31:04;;;;;;;1.27;0.50;;;18.80;92.60;;;;;;4840512;29;20050;-89
2023/05/01 14:33:32;;;;;;;3.80;0.50;;;18.90;92.50;;;;;;4844363;29;20045;-88
2023/05/01 14:35:58;;;;;;;3.58;0.88;;;18.80;93.20;;;;;;4848524;29;20049;-89
2023/05/01 14:38:26;;;;;;;1.40;0.40;;;18.80;93.20;;;;;;4876530;29;20195;-88
2023/05/01 14:40:55;;;;;;;0.55;0.30;;;18.80;93.20;;;;;;4859268;29;20046;-87
2023/05/01 14:43:40;;;;;;;2.08;0.70;;;18.70;92.70;;;;;;4843323;29;20376;-89
2023/05/01 14:46:34;;;;;;;2.15;0.55;;;18.80;92.10;;;;;;4853891;29;20046;-89
2023/05/01 14:49:00;;;;;;;1.00;0.40;;;18.60;91.60;;;;;;4861939;29;20049;-87
2023/05/01 14:51:27;;;;;;;1.90;0.45;;;18.50;92.10;;;;;;4843371;29;20190;-87
2023/05/01 14:53:53;;;;;;;2.00;0.40;;;18.50;92.70;;;;;;4867023;29;20503;-87
2023/05/01 14:56:42;;;;;;;0.95;0.30;;;18.70;92.70;;;;;;4866283;29;20435;-89
2023/05/01 15:09:11;;;;;;;1.50;0.60;;;21.10;93.70;;;;;;5129974;27;20460;-74
2023/05/01 15:11:37;;;;;;;;;;;21.30;99.20;;;;;;5123397;27;21039;-62
2023/05/01 15:14:02;;;;;;;;;;;22.10;94.40;;;;;;5110383;28;20551;-62
2023/05/01 15:19:45;;;;;;;5.40;1.35;;;20.90;93.70;;;;;;5009044;27;4846791;-84
2023/05/01 15:22:11;;;;;;;255.85;241.43;;;20.00;94.20;;;;;;5170623;27;20058;-85
2023/05/01 15:24:38;;;;;;;;;;;19.40;94.10;;;;;;5170731;27;20038;-83
2023/05/01 15:27:04;;;;;;;;;;;18.80;95.10;;;;;;5151725;27;25074;-82
2023/05/01 15:29:30;;;;;;;;;;;18.50;96.70;;;;;;5152772;27;20298;-80
2023/05/01 15:31:55;;;;;;;;;;;18.00;97.60;;;;;;5171661;27;19938;-81
2023/05/01 15:34:21;;;;;;;1222.60;580.90;;;17.80;98.40;;;;;;5171056;27;19923;-82
2023/05/01 15:36:48;;;;;;;;;;;17.50;99.60;;;;;;5151120;27;20047;-81
2023/05/01 15:39:13;;;;;;;;;;;17.60;99.90;;;;;;5170593;27;20006;-82
2023/05/01 15:41:40;;;;;;;;;;;17.40;99.90;;;;;;5170043;27;24117;-83
2023/05/01 15:44:06;;;;;;;;;;;17.50;99.90;;;;;;5151425;27;19927;-82
2023/05/01 15:46:33;;;;;;;;;;;17.50;99.90;;;;;;5170293;27;19919;-81
2023/05/01 15:48:58;;;;;;;;;;;17.50;99.90;;;;;;5169765;27;19926;-82
2023/05/01 15:51:24;;;;;;;;;;;17.40;99.90;;;;;;5162139;27;19919;-81
2023/05/01 15:53:50;;;;;;;681.50;408.30;;;17.40;99.90;;;;;;5170190;27;19919;-81
2023/05/01 15:56:16;;;;;;;;;;;17.30;99.90;;;;;;5152153;27;20269;-80
2023/05/01 15:58:41;;;;;;;;;;;17.20;99.90;;;;;;5170784;27;19926;-81
2023/05/01 16:01:07;;;;;;;;;;;17.20;99.90;;;;;;5169247;27;25053;-79
2023/05/01 16:03:33;;;;;;;;;;;17.20;99.90;;;;;;5170971;27;19925;-81
2023/05/01 16:05:59;;;;;;;;;;;17.30;99.90;;;;;;5169718;27;20098;-79
2023/05/01 16:08:25;;;;;;;;;;;17.20;99.90;;;;;;5169969;27;19919;-80
2023/05/01 16:10:52;;;;;;;;;;;17.20;99.90;;;;;;5170197;27;19971;-81
2023/05/01 16:13:18;;;;;;;;;;;17.30;99.90;;;;;;5150888;27;19918;-82
2023/05/01 16:15:43;;;;;;;;;;;17.00;99.20;;;;;;5169283;27;19978;-82
2023/05/01 16:18:15;;;;;;;;;;;17.00;99.30;;;;;;5151367;27;19919;-82
2023/05/01 16:20:41;;;;;;;;;;;16.70;97.80;;;;;;5161654;27;19918;-84
2023/05/01 16:23:07;;;;;;;;;;;16.80;96.70;;;;;;5150688;27;19922;-84
2023/05/01 16:25:33;;;;;;;6.13;2.90;;;16.60;96.50;;;;;;5151012;27;24068;-83
2023/05/01 16:27:59;;;;;;;;;;;16.50;96.60;;;;;;5169849;27;20027;-84
2023/05/01 16:30:26;;;;;;;;;;;16.40;97.00;;;;;;5139096;27;20290;-80
2023/05/01 16:32:52;;;;;;;;;;;16.40;97.80;;;;;;5136687;27;19915;-81
2023/05/01 16:35:20;;;;;;;;;;;16.40;98.00;;;;;;5155415;27;20339;-82